sensor_id;sensor_type;location;lat;lon;timestamp;P1;durP1;ratioP1;P2;durP2;ratioP2
25207;SDS011;13153;52.316;21.166;2024-01-30T00:01:58;46.15;;;23.08;;
25207;SDS011;13153;52.316;21.166;2024-01-30T00:04:23;48.63;;;22.73;;
25207;SDS011;13153;52.316;21.166;2024-01-30T00:06:50;50.78;;;23.98;;
25207;SDS011;13153;52.316;21.166;2024-01-30T00:09:17;46.38;;;22.92;;
25207;SDS011;13153;52.316;21.166;2024-01-30T00:11:43;53.95;;;25.42;;
25207;SDS011;13153;52.316;21.166;2024-01-30T00:14:09;47.45;;;23.25;;
25207;SDS011;13153;52.316;21.166;2024-01-30T00:16:34;52.95;;;24.42;;
25207;SDS011;13153;52.316;21.166;2024-01-30T00:19:00;50.03;;;23.98;;
25207;SDS011;13153;52.316;21.166;2024-01-30T00:21:27;52.05;;;23.10;;
25207;SDS011;13153;52.316;21.166;2024-01-30T00:23:53;44.35;;;22.48;;
25207;SDS011;13153;52.316;21.166;2024-01-30T00:26:18;54.63;;;23.67;;
25207;SDS011;13153;52.316;21.166;2024-01-30T00:28:44;55.80;;;24.27;;
25207;SDS011;13153;52.316;21.166;2024-01-30T00:31:10;52.35;;;24.85;;
25207;SDS011;13153;52.316;21.166;2024-01-30T00:33:37;49.70;;;23.42;;
25207;SDS011;13153;52.316;21.166;2024-01-30T00:36:05;49.25;;;23.65;;
25207;SDS011;13153;52.316;21.166;2024-01-30T00:38:32;51.63;;;23.73;;
25207;SDS011;13153;52.316;21.166;2024-01-30T00:40:58;49.50;;;23.15;;
25207;SDS011;13153;52.316;21.166;2024-01-30T00:43:24;50.03;;;22.85;;
25207;SDS011;13153;52.316;21.166;2024-01-30T00:45:50;52.50;;;24.65;;
25207;SDS011;13153;52.316;21.166;2024-01-30T00:48:19;48.95;;;23.73;;
25207;SDS011;13153;52.316;21.166;2024-01-30T00:51:06;53.95;;;24.60;;
25207;SDS011;13153;52.316;21.166;2024-01-30T00:53:31;53.03;;;24.98;;
25207;SDS011;13153;52.316;21.166;2024-01-30T00:55:57;53.42;;;24.02;;
25207;SDS011;13153;52.316;21.166;2024-01-30T00:58:23;51.78;;;24.38;;
25207;SDS011;13153;52.316;21.166;2024-01-30T01:00:48;49.50;;;24.13;;
25207;SDS011;13153;52.316;21.166;2024-01-30T01:03:14;52.90;;;24.58;;
25207;SDS011;13153;52.316;21.166;2024-01-30T01:05:40;48.20;;;24.35;;
25207;SDS011;13153;52.316;21.166;2024-01-30T01:08:06;53.15;;;25.40;;
25207;SDS011;13153;52.316;21.166;2024-01-30T01:10:31;48.40;;;24.65;;
25207;SDS011;13153;52.316;21.166;2024-01-30T01:12:57;50.80;;;25.23;;
25207;SDS011;13153;52.316;21.166;2024-01-30T01:15:23;49.58;;;25.13;;
25207;SDS011;13153;52.316;21.166;2024-01-30T01:17:48;49.30;;;24.05;;
25207;SDS011;13153;52.316;21.166;2024-01-30T01:20:14;55.05;;;24.88;;
25207;SDS011;13153;52.316;21.166;2024-01-30T01:22:40;51.10;;;23.92;;
25207;SDS011;13153;52.316;21.166;2024-01-30T01:25:06;57.08;;;25.05;;
25207;SDS011;13153;52.316;21.166;2024-01-30T01:27:33;50.08;;;23.60;;
25207;SDS011;13153;52.316;21.166;2024-01-30T01:29:59;47.92;;;23.33;;
25207;SDS011;13153;52.316;21.166;2024-01-30T01:32:26;51.35;;;24.10;;
25207;SDS011;13153;52.316;21.166;2024-01-30T01:34:51;48.97;;;23.75;;
25207;SDS011;13153;52.316;21.166;2024-01-30T01:37:17;48.03;;;23.70;;
25207;SDS011;13153;52.316;21.166;2024-01-30T01:39:43;55.45;;;24.73;;
25207;SDS011;13153;52.316;21.166;2024-01-30T01:42:08;53.78;;;24.92;;
25207;SDS011;13153;52.316;21.166;2024-01-30T01:44:34;50.25;;;24.85;;
25207;SDS011;13153;52.316;21.166;2024-01-30T01:47:00;52.65;;;25.92;;
25207;SDS011;13153;52.316;21.166;2024-01-30T01:49:27;49.67;;;24.63;;
25207;SDS011;13153;52.316;21.166;2024-01-30T01:51:54;47.60;;;23.85;;
25207;SDS011;13153;52.316;21.166;2024-01-30T01:54:25;48.83;;;24.15;;
25207;SDS011;13153;52.316;21.166;2024-01-30T01:56:54;49.67;;;23.63;;
25207;SDS011;13153;52.316;21.166;2024-01-30T01:59:20;49.78;;;23.98;;
25207;SDS011;13153;52.316;21.166;2024-01-30T02:01:48;50.45;;;24.65;;
25207;SDS011;13153;52.316;21.166;2024-01-30T02:04:15;50.65;;;24.85;;
25207;SDS011;13153;52.316;21.166;2024-01-30T02:06:41;48.92;;;23.15;;
25207;SDS011;13153;52.316;21.166;2024-01-30T02:09:09;52.20;;;23.58;;
25207;SDS011;13153;52.316;21.166;2024-01-30T02:11:35;47.42;;;23.05;;
25207;SDS011;13153;52.316;21.166;2024-01-30T02:14:04;47.67;;;23.20;;
25207;SDS011;13153;52.316;21.166;2024-01-30T02:16:30;47.38;;;23.27;;
25207;SDS011;13153;52.316;21.166;2024-01-30T02:18:57;51.95;;;24.73;;
25207;SDS011;13153;52.316;21.166;2024-01-30T02:21:23;48.95;;;24.02;;
25207;SDS011;13153;52.316;21.166;2024-01-30T02:23:49;50.45;;;23.25;;
25207;SDS011;13153;52.316;21.166;2024-01-30T02:26:19;49.60;;;24.10;;
25207;SDS011;13153;52.316;21.166;2024-01-30T02:28:45;49.50;;;24.20;;
25207;SDS011;13153;52.316;21.166;2024-01-30T02:31:11;51.53;;;24.75;;
25207;SDS011;13153;52.316;21.166;2024-01-30T02:33:36;50.13;;;24.17;;
25207;SDS011;13153;52.316;21.166;2024-01-30T02:36:02;51.13;;;23.58;;
25207;SDS011;13153;52.316;21.166;2024-01-30T02:38:28;52.38;;;24.17;;
25207;SDS011;13153;52.316;21.166;2024-01-30T02:40:54;53.20;;;24.20;;
25207;SDS011;13153;52.316;21.166;2024-01-30T02:43:21;48.38;;;24.08;;
25207;SDS011;13153;52.316;21.166;2024-01-30T02:45:47;56.47;;;26.40;;
25207;SDS011;13153;52.316;21.166;2024-01-30T02:48:12;54.90;;;24.80;;
25207;SDS011;13153;52.316;21.166;2024-01-30T02:50:38;51.80;;;23.73;;
25207;SDS011;13153;52.316;21.166;2024-01-30T02:53:04;55.17;;;24.35;;
25207;SDS011;13153;52.316;21.166;2024-01-30T02:55:29;50.38;;;25.30;;
25207;SDS011;13153;52.316;21.166;2024-01-30T02:57:55;55.15;;;24.42;;
25207;SDS011;13153;52.316;21.166;2024-01-30T03:00:21;58.47;;;25.73;;
25207;SDS011;13153;52.316;21.166;2024-01-30T03:02:47;52.00;;;24.70;;
25207;SDS011;13153;52.316;21.166;2024-01-30T03:05:12;51.47;;;24.90;;
25207;SDS011;13153;52.316;21.166;2024-01-30T03:07:38;49.50;;;23.73;;
25207;SDS011;13153;52.316;21.166;2024-01-30T03:10:04;50.30;;;24.40;;
25207;SDS011;13153;52.316;21.166;2024-01-30T03:12:31;56.72;;;25.02;;
25207;SDS011;13153;52.316;21.166;2024-01-30T03:14:57;53.40;;;24.25;;
25207;SDS011;13153;52.316;21.166;2024-01-30T03:17:23;49.45;;;24.30;;
25207;SDS011;13153;52.316;21.166;2024-01-30T03:19:49;55.80;;;25.30;;
25207;SDS011;13153;52.316;21.166;2024-01-30T03:22:15;53.47;;;26.05;;
25207;SDS011;13153;52.316;21.166;2024-01-30T03:24:41;55.65;;;25.05;;
25207;SDS011;13153;52.316;21.166;2024-01-30T03:27:07;54.97;;;25.08;;
25207;SDS011;13153;52.316;21.166;2024-01-30T03:29:34;56.15;;;25.58;;
25207;SDS011;13153;52.316;21.166;2024-01-30T03:31:59;48.63;;;24.38;;
25207;SDS011;13153;52.316;21.166;2024-01-30T03:34:25;49.83;;;24.75;;
25207;SDS011;13153;52.316;21.166;2024-01-30T03:36:51;52.33;;;24.77;;
25207;SDS011;13153;52.316;21.166;2024-01-30T03:39:17;54.72;;;24.88;;
25207;SDS011;13153;52.316;21.166;2024-01-30T03:41:42;51.53;;;24.05;;
25207;SDS011;13153;52.316;21.166;2024-01-30T03:44:09;52.67;;;24.77;;
25207;SDS011;13153;52.316;21.166;2024-01-30T03:46:35;56.17;;;26.55;;
25207;SDS011;13153;52.316;21.166;2024-01-30T03:49:01;54.05;;;25.00;;
25207;SDS011;13153;52.316;21.166;2024-01-30T03:51:26;54.78;;;25.73;;
25207;SDS011;13153;52.316;21.166;2024-01-30T03:53:52;49.17;;;24.92;;
25207;SDS011;13153;52.316;21.166;2024-01-30T03:56:18;58.92;;;26.63;;
25207;SDS011;13153;52.316;21.166;2024-01-30T03:58:46;50.90;;;24.65;;
25207;SDS011;13153;52.316;21.166;2024-01-30T04:01:13;53.05;;;25.45;;
25207;SDS011;13153;52.316;21.166;2024-01-30T04:03:40;56.05;;;25.20;;
25207;SDS011;13153;52.316;21.166;2024-01-30T04:06:06;57.38;;;25.85;;
25207;SDS011;13153;52.316;21.166;2024-01-30T04:08:33;53.65;;;25.45;;
25207;SDS011;13153;52.316;21.166;2024-01-30T04:10:59;55.97;;;24.88;;
25207;SDS011;13153;52.316;21.166;2024-01-30T04:13:30;50.42;;;24.58;;
25207;SDS011;13153;52.316;21.166;2024-01-30T04:15:58;53.88;;;25.95;;
25207;SDS011;13153;52.316;21.166;2024-01-30T04:18:26;53.25;;;24.48;;
25207;SDS011;13153;52.316;21.166;2024-01-30T04:20:53;53.90;;;25.17;;
25207;SDS011;13153;52.316;21.166;2024-01-30T04:23:18;54.33;;;25.17;;
25207;SDS011;13153;52.316;21.166;2024-01-30T04:25:44;54.95;;;26.02;;
25207;SDS011;13153;52.316;21.166;2024-01-30T04:28:10;58.50;;;26.00;;
25207;SDS011;13153;52.316;21.166;2024-01-30T04:30:38;54.33;;;25.65;;
25207;SDS011;13153;52.316;21.166;2024-01-30T04:33:04;52.95;;;25.50;;
25207;SDS011;13153;52.316;21.166;2024-01-30T04:35:30;55.92;;;25.58;;
25207;SDS011;13153;52.316;21.166;2024-01-30T04:37:56;54.88;;;26.52;;
25207;SDS011;13153;52.316;21.166;2024-01-30T04:40:22;54.22;;;25.48;;
25207;SDS011;13153;52.316;21.166;2024-01-30T04:42:48;58.33;;;26.63;;
25207;SDS011;13153;52.316;21.166;2024-01-30T04:45:13;53.33;;;25.42;;
25207;SDS011;13153;52.316;21.166;2024-01-30T04:47:39;57.47;;;25.60;;
25207;SDS011;13153;52.316;21.166;2024-01-30T04:50:08;58.13;;;26.77;;
25207;SDS011;13153;52.316;21.166;2024-01-30T04:52:34;54.40;;;25.88;;
25207;SDS011;13153;52.316;21.166;2024-01-30T04:55:01;58.25;;;26.83;;
25207;SDS011;13153;52.316;21.166;2024-01-30T04:57:26;53.08;;;25.48;;
25207;SDS011;13153;52.316;21.166;2024-01-30T04:59:52;54.08;;;25.33;;
25207;SDS011;13153;52.316;21.166;2024-01-30T05:02:18;54.28;;;25.70;;
25207;SDS011;13153;52.316;21.166;2024-01-30T05:04:44;55.38;;;25.50;;
25207;SDS011;13153;52.316;21.166;2024-01-30T05:07:10;56.05;;;27.58;;
25207;SDS011;13153;52.316;21.166;2024-01-30T05:09:35;58.80;;;25.98;;
25207;SDS011;13153;52.316;21.166;2024-01-30T05:12:01;58.42;;;25.65;;
25207;SDS011;13153;52.316;21.166;2024-01-30T05:14:27;60.28;;;26.85;;
25207;SDS011;13153;52.316;21.166;2024-01-30T05:16:53;50.92;;;25.40;;
25207;SDS011;13153;52.316;21.166;2024-01-30T05:19:19;55.30;;;25.63;;
25207;SDS011;13153;52.316;21.166;2024-01-30T05:21:46;59.33;;;27.02;;
25207;SDS011;13153;52.316;21.166;2024-01-30T05:24:12;51.67;;;26.15;;
25207;SDS011;13153;52.316;21.166;2024-01-30T05:26:38;58.38;;;26.90;;
25207;SDS011;13153;52.316;21.166;2024-01-30T05:29:04;53.22;;;24.95;;
25207;SDS011;13153;52.316;21.166;2024-01-30T05:31:31;48.78;;;24.15;;
25207;SDS011;13153;52.316;21.166;2024-01-30T05:33:57;69.45;;;32.83;;
25207;SDS011;13153;52.316;21.166;2024-01-30T05:36:23;55.22;;;26.17;;
25207;SDS011;13153;52.316;21.166;2024-01-30T05:38:48;56.88;;;25.83;;
25207;SDS011;13153;52.316;21.166;2024-01-30T05:41:14;52.65;;;25.73;;
25207;SDS011;13153;52.316;21.166;2024-01-30T05:43:40;57.72;;;26.02;;
25207;SDS011;13153;52.316;21.166;2024-01-30T05:46:06;60.13;;;27.40;;
25207;SDS011;13153;52.316;21.166;2024-01-30T05:48:32;52.80;;;26.10;;
25207;SDS011;13153;52.316;21.166;2024-01-30T05:50:58;62.47;;;28.08;;
25207;SDS011;13153;52.316;21.166;2024-01-30T05:53:25;59.65;;;27.25;;
25207;SDS011;13153;52.316;21.166;2024-01-30T05:55:50;59.55;;;27.75;;
25207;SDS011;13153;52.316;21.166;2024-01-30T05:58:16;58.55;;;27.42;;
25207;SDS011;13153;52.316;21.166;2024-01-30T06:00:42;55.83;;;27.15;;
25207;SDS011;13153;52.316;21.166;2024-01-30T06:03:07;58.90;;;27.50;;
25207;SDS011;13153;52.316;21.166;2024-01-30T06:05:33;58.55;;;28.08;;
25207;SDS011;13153;52.316;21.166;2024-01-30T06:07:59;57.25;;;27.85;;
25207;SDS011;13153;52.316;21.166;2024-01-30T06:10:25;62.83;;;27.95;;
25207;SDS011;13153;52.316;21.166;2024-01-30T06:12:50;56.67;;;26.65;;
25207;SDS011;13153;52.316;21.166;2024-01-30T06:15:16;58.83;;;28.23;;
25207;SDS011;13153;52.316;21.166;2024-01-30T06:17:42;55.60;;;26.98;;
25207;SDS011;13153;52.316;21.166;2024-01-30T06:20:07;60.63;;;27.77;;
25207;SDS011;13153;52.316;21.166;2024-01-30T06:22:33;58.90;;;27.50;;
25207;SDS011;13153;52.316;21.166;2024-01-30T06:24:59;58.03;;;27.27;;
25207;SDS011;13153;52.316;21.166;2024-01-30T06:27:25;59.85;;;27.60;;
25207;SDS011;13153;52.316;21.166;2024-01-30T06:29:50;62.75;;;28.60;;
25207;SDS011;13153;52.316;21.166;2024-01-30T06:32:16;54.33;;;26.08;;
25207;SDS011;13153;52.316;21.166;2024-01-30T06:34:42;60.97;;;27.88;;
25207;SDS011;13153;52.316;21.166;2024-01-30T06:37:09;60.85;;;26.90;;
25207;SDS011;13153;52.316;21.166;2024-01-30T06:39:35;60.05;;;28.45;;
25207;SDS011;13153;52.316;21.166;2024-01-30T06:42:01;57.65;;;27.95;;
25207;SDS011;13153;52.316;21.166;2024-01-30T06:44:27;62.20;;;28.55;;
25207;SDS011;13153;52.316;21.166;2024-01-30T06:46:53;64.32;;;29.10;;
25207;SDS011;13153;52.316;21.166;2024-01-30T06:49:19;69.35;;;29.38;;
25207;SDS011;13153;52.316;21.166;2024-01-30T06:51:46;62.33;;;28.75;;
25207;SDS011;13153;52.316;21.166;2024-01-30T06:54:12;65.40;;;30.33;;
25207;SDS011;13153;52.316;21.166;2024-01-30T06:56:38;68.20;;;30.23;;
25207;SDS011;13153;52.316;21.166;2024-01-30T06:59:04;66.35;;;28.23;;
25207;SDS011;13153;52.316;21.166;2024-01-30T07:01:30;60.63;;;26.88;;
25207;SDS011;13153;52.316;21.166;2024-01-30T07:03:56;57.47;;;26.80;;
25207;SDS011;13153;52.316;21.166;2024-01-30T07:06:22;59.25;;;27.70;;
25207;SDS011;13153;52.316;21.166;2024-01-30T07:08:49;56.85;;;26.73;;
25207;SDS011;13153;52.316;21.166;2024-01-30T07:11:21;57.00;;;26.50;;
25207;SDS011;13153;52.316;21.166;2024-01-30T07:13:49;56.28;;;26.35;;
25207;SDS011;13153;52.316;21.166;2024-01-30T07:16:16;57.47;;;27.30;;
25207;SDS011;13153;52.316;21.166;2024-01-30T07:18:42;61.10;;;27.60;;
25207;SDS011;13153;52.316;21.166;2024-01-30T07:21:09;59.72;;;28.20;;
25207;SDS011;13153;52.316;21.166;2024-01-30T07:23:35;63.85;;;28.60;;
25207;SDS011;13153;52.316;21.166;2024-01-30T07:26:03;56.33;;;26.45;;
25207;SDS011;13153;52.316;21.166;2024-01-30T07:28:31;64.95;;;27.42;;
25207;SDS011;13153;52.316;21.166;2024-01-30T07:30:58;57.25;;;27.13;;
25207;SDS011;13153;52.316;21.166;2024-01-30T07:33:23;58.10;;;27.05;;
25207;SDS011;13153;52.316;21.166;2024-01-30T07:35:49;55.00;;;26.38;;
25207;SDS011;13153;52.316;21.166;2024-01-30T07:38:17;55.47;;;26.27;;
25207;SDS011;13153;52.316;21.166;2024-01-30T07:40:43;52.22;;;25.63;;
25207;SDS011;13153;52.316;21.166;2024-01-30T07:43:09;54.67;;;26.25;;
25207;SDS011;13153;52.316;21.166;2024-01-30T07:45:35;57.33;;;26.15;;
25207;SDS011;13153;52.316;21.166;2024-01-30T07:48:02;52.67;;;25.38;;
25207;SDS011;13153;52.316;21.166;2024-01-30T07:50:28;51.78;;;25.33;;
25207;SDS011;13153;52.316;21.166;2024-01-30T07:52:59;52.42;;;25.45;;
25207;SDS011;13153;52.316;21.166;2024-01-30T07:55:25;56.80;;;26.92;;
25207;SDS011;13153;52.316;21.166;2024-01-30T07:57:56;55.20;;;25.90;;
25207;SDS011;13153;52.316;21.166;2024-01-30T08:00:22;61.65;;;26.75;;
25207;SDS011;13153;52.316;21.166;2024-01-30T08:02:48;57.53;;;26.65;;
25207;SDS011;13153;52.316;21.166;2024-01-30T08:05:13;63.63;;;27.33;;
25207;SDS011;13153;52.316;21.166;2024-01-30T08:07:43;56.85;;;27.20;;
25207;SDS011;13153;52.316;21.166;2024-01-30T08:10:10;48.70;;;24.95;;
25207;SDS011;13153;52.316;21.166;2024-01-30T08:12:38;52.08;;;24.35;;
25207;SDS011;13153;52.316;21.166;2024-01-30T08:15:04;48.97;;;24.42;;
25207;SDS011;13153;52.316;21.166;2024-01-30T08:17:30;49.80;;;24.23;;
25207;SDS011;13153;52.316;21.166;2024-01-30T08:19:56;48.65;;;24.30;;
25207;SDS011;13153;52.316;21.166;2024-01-30T08:22:22;52.10;;;25.27;;
25207;SDS011;13153;52.316;21.166;2024-01-30T08:24:48;52.05;;;25.15;;
25207;SDS011;13153;52.316;21.166;2024-01-30T08:27:13;50.60;;;23.83;;
25207;SDS011;13153;52.316;21.166;2024-01-30T08:29:39;55.30;;;25.00;;
25207;SDS011;13153;52.316;21.166;2024-01-30T08:32:05;49.65;;;24.05;;
25207;SDS011;13153;52.316;21.166;2024-01-30T08:34:31;51.97;;;25.90;;
25207;SDS011;13153;52.316;21.166;2024-01-30T08:36:57;52.85;;;24.27;;
25207;SDS011;13153;52.316;21.166;2024-01-30T08:39:23;50.80;;;24.83;;
25207;SDS011;13153;52.316;21.166;2024-01-30T08:41:49;51.92;;;24.40;;
25207;SDS011;13153;52.316;21.166;2024-01-30T08:44:15;49.25;;;23.85;;
25207;SDS011;13153;52.316;21.166;2024-01-30T08:46:42;50.80;;;23.92;;
25207;SDS011;13153;52.316;21.166;2024-01-30T08:49:11;49.28;;;24.15;;
25207;SDS011;13153;52.316;21.166;2024-01-30T08:51:38;52.25;;;25.23;;
25207;SDS011;13153;52.316;21.166;2024-01-30T08:54:05;54.10;;;25.48;;
25207;SDS011;13153;52.316;21.166;2024-01-30T08:56:30;50.58;;;25.52;;
25207;SDS011;13153;52.316;21.166;2024-01-30T08:58:56;53.15;;;25.45;;
25207;SDS011;13153;52.316;21.166;2024-01-30T09:01:22;49.78;;;23.70;;
25207;SDS011;13153;52.316;21.166;2024-01-30T09:03:48;48.72;;;24.30;;
25207;SDS011;13153;52.316;21.166;2024-01-30T09:06:13;43.10;;;23.17;;
25207;SDS011;13153;52.316;21.166;2024-01-30T09:08:39;50.78;;;23.63;;
25207;SDS011;13153;52.316;21.166;2024-01-30T09:11:08;41.92;;;22.77;;
25207;SDS011;13153;52.316;21.166;2024-01-30T09:13:35;43.55;;;23.23;;
25207;SDS011;13153;52.316;21.166;2024-01-30T09:16:02;44.40;;;23.73;;
25207;SDS011;13153;52.316;21.166;2024-01-30T09:18:28;47.60;;;22.88;;
25207;SDS011;13153;52.316;21.166;2024-01-30T09:20:53;45.88;;;22.02;;
25207;SDS011;13153;52.316;21.166;2024-01-30T09:23:19;47.65;;;22.38;;
25207;SDS011;13153;52.316;21.166;2024-01-30T09:25:45;46.15;;;21.60;;
25207;SDS011;13153;52.316;21.166;2024-01-30T09:28:11;46.88;;;21.80;;
25207;SDS011;13153;52.316;21.166;2024-01-30T09:30:36;47.53;;;23.30;;
25207;SDS011;13153;52.316;21.166;2024-01-30T09:33:02;39.50;;;21.63;;
25207;SDS011;13153;52.316;21.166;2024-01-30T09:35:28;47.92;;;21.88;;
25207;SDS011;13153;52.316;21.166;2024-01-30T09:37:55;42.25;;;21.80;;
25207;SDS011;13153;52.316;21.166;2024-01-30T09:40:22;44.55;;;21.40;;
25207;SDS011;13153;52.316;21.166;2024-01-30T09:42:48;42.42;;;21.08;;
25207;SDS011;13153;52.316;21.166;2024-01-30T09:45:19;47.28;;;21.65;;
25207;SDS011;13153;52.316;21.166;2024-01-30T09:47:49;47.72;;;22.23;;
25207;SDS011;13153;52.316;21.166;2024-01-30T09:50:15;45.58;;;21.77;;
25207;SDS011;13153;52.316;21.166;2024-01-30T09:52:45;53.55;;;21.58;;
25207;SDS011;13153;52.316;21.166;2024-01-30T09:55:12;45.75;;;22.27;;
25207;SDS011;13153;52.316;21.166;2024-01-30T09:57:39;52.55;;;22.58;;
25207;SDS011;13153;52.316;21.166;2024-01-30T10:00:07;41.00;;;20.10;;
25207;SDS011;13153;52.316;21.166;2024-01-30T10:02:34;43.42;;;20.88;;
25207;SDS011;13153;52.316;21.166;2024-01-30T10:05:01;40.78;;;21.00;;
25207;SDS011;13153;52.316;21.166;2024-01-30T10:07:27;46.35;;;21.42;;
25207;SDS011;13153;52.316;21.166;2024-01-30T10:09:53;37.72;;;19.30;;
25207;SDS011;13153;52.316;21.166;2024-01-30T10:12:21;40.22;;;19.15;;
25207;SDS011;13153;52.316;21.166;2024-01-30T10:14:47;38.42;;;19.17;;
25207;SDS011;13153;52.316;21.166;2024-01-30T10:17:13;38.33;;;19.58;;
25207;SDS011;13153;52.316;21.166;2024-01-30T10:19:39;37.88;;;18.05;;
25207;SDS011;13153;52.316;21.166;2024-01-30T10:22:06;39.90;;;18.40;;
25207;SDS011;13153;52.316;21.166;2024-01-30T10:24:33;45.97;;;19.95;;
25207;SDS011;13153;52.316;21.166;2024-01-30T10:26:59;43.05;;;20.33;;
25207;SDS011;13153;52.316;21.166;2024-01-30T10:29:25;48.22;;;20.15;;
25207;SDS011;13153;52.316;21.166;2024-01-30T10:32:02;47.45;;;20.10;;
25207;SDS011;13153;52.316;21.166;2024-01-30T10:34:30;40.17;;;19.63;;
25207;SDS011;13153;52.316;21.166;2024-01-30T10:37:00;47.80;;;21.25;;
25207;SDS011;13153;52.316;21.166;2024-01-30T10:39:41;42.10;;;18.60;;
25207;SDS011;13153;52.316;21.166;2024-01-30T10:42:12;40.25;;;18.15;;
25207;SDS011;13153;52.316;21.166;2024-01-30T10:47:44;31.77;;;16.75;;
25207;SDS011;13153;52.316;21.166;2024-01-30T10:50:17;37.97;;;17.23;;
25207;SDS011;13153;52.316;21.166;2024-01-30T10:52:44;36.30;;;17.58;;
25207;SDS011;13153;52.316;21.166;2024-01-30T10:55:13;33.67;;;16.88;;
25207;SDS011;13153;52.316;21.166;2024-01-30T10:57:40;35.83;;;17.38;;
25207;SDS011;13153;52.316;21.166;2024-01-30T11:00:07;40.85;;;20.05;;
25207;SDS011;13153;52.316;21.166;2024-01-30T11:02:40;47.10;;;20.83;;
25207;SDS011;13153;52.316;21.166;2024-01-30T11:05:09;37.30;;;16.83;;
25207;SDS011;13153;52.316;21.166;2024-01-30T11:07:35;36.95;;;16.88;;
25207;SDS011;13153;52.316;21.166;2024-01-30T11:10:04;36.90;;;17.17;;
25207;SDS011;13153;52.316;21.166;2024-01-30T11:12:37;31.83;;;16.25;;
25207;SDS011;13153;52.316;21.166;2024-01-30T11:15:15;39.13;;;16.45;;
25207;SDS011;13153;52.316;21.166;2024-01-30T11:20:14;33.75;;;16.80;;
25207;SDS011;13153;52.316;21.166;2024-01-30T11:22:51;37.35;;;17.33;;
25207;SDS011;13153;52.316;21.166;2024-01-30T11:25:22;33.95;;;16.02;;
25207;SDS011;13153;52.316;21.166;2024-01-30T11:27:50;34.55;;;16.90;;
25207;SDS011;13153;52.316;21.166;2024-01-30T11:30:24;33.92;;;15.77;;
25207;SDS011;13153;52.316;21.166;2024-01-30T11:32:58;34.95;;;16.58;;
25207;SDS011;13153;52.316;21.166;2024-01-30T11:38:02;34.35;;;16.15;;
25207;SDS011;13153;52.316;21.166;2024-01-30T11:40:29;35.05;;;16.20;;
25207;SDS011;13153;52.316;21.166;2024-01-30T11:42:56;34.55;;;15.93;;
25207;SDS011;13153;52.316;21.166;2024-01-30T11:45:26;39.20;;;17.67;;
25207;SDS011;13153;52.316;21.166;2024-01-30T11:47:53;31.55;;;15.27;;
25207;SDS011;13153;52.316;21.166;2024-01-30T11:50:19;32.60;;;17.02;;
25207;SDS011;13153;52.316;21.166;2024-01-30T11:52:46;31.23;;;16.17;;
25207;SDS011;13153;52.316;21.166;2024-01-30T11:55:15;35.50;;;16.83;;
25207;SDS011;13153;52.316;21.166;2024-01-30T11:57:41;36.65;;;16.40;;
25207;SDS011;13153;52.316;21.166;2024-01-30T12:00:13;42.28;;;16.17;;
25207;SDS011;13153;52.316;21.166;2024-01-30T12:02:42;37.10;;;17.13;;
25207;SDS011;13153;52.316;21.166;2024-01-30T12:05:08;35.90;;;16.80;;
25207;SDS011;13153;52.316;21.166;2024-01-30T12:07:34;35.78;;;16.63;;
25207;SDS011;13153;52.316;21.166;2024-01-30T12:10:01;38.55;;;16.88;;
25207;SDS011;13153;52.316;21.166;2024-01-30T12:12:28;34.20;;;16.65;;
25207;SDS011;13153;52.316;21.166;2024-01-30T12:14:55;32.70;;;16.30;;
25207;SDS011;13153;52.316;21.166;2024-01-30T12:17:31;34.17;;;17.05;;
25207;SDS011;13153;52.316;21.166;2024-01-30T12:20:09;31.77;;;15.57;;
25207;SDS011;13153;52.316;21.166;2024-01-30T12:22:40;33.83;;;16.48;;
25207;SDS011;13153;52.316;21.166;2024-01-30T12:25:09;36.00;;;17.13;;
25207;SDS011;13153;52.316;21.166;2024-01-30T12:27:36;34.85;;;17.33;;
25207;SDS011;13153;52.316;21.166;2024-01-30T12:30:07;29.38;;;14.90;;
25207;SDS011;13153;52.316;21.166;2024-01-30T12:32:35;34.58;;;15.20;;
25207;SDS011;13153;52.316;21.166;2024-01-30T12:35:14;32.15;;;15.30;;
25207;SDS011;13153;52.316;21.166;2024-01-30T12:37:44;34.15;;;16.48;;
25207;SDS011;13153;52.316;21.166;2024-01-30T12:40:13;32.40;;;15.30;;
25207;SDS011;13153;52.316;21.166;2024-01-30T12:42:40;36.38;;;16.83;;
25207;SDS011;13153;52.316;21.166;2024-01-30T12:45:07;32.88;;;16.20;;
25207;SDS011;13153;52.316;21.166;2024-01-30T12:47:34;38.42;;;16.63;;
25207;SDS011;13153;52.316;21.166;2024-01-30T12:50:00;33.28;;;16.35;;
25207;SDS011;13153;52.316;21.166;2024-01-30T12:52:26;32.95;;;15.50;;
25207;SDS011;13153;52.316;21.166;2024-01-30T12:54:52;31.20;;;16.25;;
25207;SDS011;13153;52.316;21.166;2024-01-30T12:57:18;32.00;;;15.43;;
25207;SDS011;13153;52.316;21.166;2024-01-30T12:59:44;32.28;;;15.10;;
25207;SDS011;13153;52.316;21.166;2024-01-30T13:02:11;33.47;;;15.40;;
25207;SDS011;13153;52.316;21.166;2024-01-30T13:04:38;32.88;;;15.68;;
25207;SDS011;13153;52.316;21.166;2024-01-30T13:07:05;30.10;;;15.00;;
25207;SDS011;13153;52.316;21.166;2024-01-30T13:09:31;30.75;;;14.57;;
25207;SDS011;13153;52.316;21.166;2024-01-30T13:11:57;29.33;;;14.73;;
25207;SDS011;13153;52.316;21.166;2024-01-30T13:14:24;32.35;;;13.82;;
25207;SDS011;13153;52.316;21.166;2024-01-30T13:16:51;34.92;;;14.98;;
25207;SDS011;13153;52.316;21.166;2024-01-30T13:19:17;32.65;;;14.40;;
25207;SDS011;13153;52.316;21.166;2024-01-30T13:21:43;31.63;;;14.38;;
25207;SDS011;13153;52.316;21.166;2024-01-30T13:24:09;34.28;;;15.30;;
25207;SDS011;13153;52.316;21.166;2024-01-30T13:26:35;30.40;;;14.77;;
25207;SDS011;13153;52.316;21.166;2024-01-30T13:29:01;33.83;;;14.30;;
25207;SDS011;13153;52.316;21.166;2024-01-30T13:31:27;28.40;;;14.45;;
25207;SDS011;13153;52.316;21.166;2024-01-30T13:33:53;28.15;;;15.02;;
25207;SDS011;13153;52.316;21.166;2024-01-30T13:36:19;30.83;;;15.77;;
25207;SDS011;13153;52.316;21.166;2024-01-30T13:38:47;30.23;;;14.27;;
25207;SDS011;13153;52.316;21.166;2024-01-30T13:41:13;32.65;;;15.07;;
25207;SDS011;13153;52.316;21.166;2024-01-30T13:43:39;29.52;;;14.40;;
25207;SDS011;13153;52.316;21.166;2024-01-30T13:46:04;34.65;;;15.45;;
25207;SDS011;13153;52.316;21.166;2024-01-30T13:48:31;32.03;;;15.77;;
25207;SDS011;13153;52.316;21.166;2024-01-30T13:50:57;35.05;;;15.10;;
25207;SDS011;13153;52.316;21.166;2024-01-30T13:53:23;28.50;;;14.50;;
25207;SDS011;13153;52.316;21.166;2024-01-30T13:55:48;35.40;;;16.02;;
25207;SDS011;13153;52.316;21.166;2024-01-30T13:58:14;33.03;;;15.88;;
25207;SDS011;13153;52.316;21.166;2024-01-30T14:00:40;34.13;;;15.82;;
25207;SDS011;13153;52.316;21.166;2024-01-30T14:03:06;33.47;;;16.33;;
25207;SDS011;13153;52.316;21.166;2024-01-30T14:05:31;35.03;;;16.02;;
25207;SDS011;13153;52.316;21.166;2024-01-30T14:07:57;35.40;;;15.45;;
25207;SDS011;13153;52.316;21.166;2024-01-30T14:10:25;34.50;;;16.60;;
25207;SDS011;13153;52.316;21.166;2024-01-30T14:12:51;33.08;;;16.17;;
25207;SDS011;13153;52.316;21.166;2024-01-30T14:15:17;39.25;;;18.10;;